Time;durP1;ratioP1;P1;durP2;ratioP2;P2;SDS_P1;SDS_P2;PMS_P1;PMS_P2;Temp;Humidity;BMP_temperature;BMP_pressure;BME280_temperature;BME280_humidity;BME280_pressure;Samples;Min_cycle;Max_cycle;Signal;HPM_P1;HPM_P2
2021/08/05 00:00:24;;;;;;;11.48;6.17;;;;;;;10.74;73.85;99542.91;1719926;82;20982;-63
2021/08/05 00:02:53;;;;;;;10.75;5.35;;;;;;;10.69;73.81;99543.59;1727018;81;20860;-63
2021/08/05 00:05:20;;;;;;;10.30;4.72;;;;;;;10.62;73.91;99546.14;1723998;82;21506;-63
2021/08/05 00:07:47;;;;;;;7.70;4.30;;;;;;;10.56;74.03;99542.51;1720583;81;20946;-63
2021/08/05 00:10:13;;;;;;;10.35;4.12;;;;;;;10.53;74.10;99543.07;1728496;82;21066;-63
2021/08/05 00:12:40;;;;;;;7.10;4.00;;;;;;;10.50;74.08;99541.92;1727543;82;20972;-63
2021/08/05 00:15:07;;;;;;;7.33;4.17;;;;;;;10.47;74.21;99548.60;1728484;82;20907;-64
2021/08/05 00:17:33;;;;;;;7.85;4.50;;;;;;;10.43;74.34;99551.42;1728593;81;21490;-63
2021/08/05 00:20:00;;;;;;;6.80;4.70;;;;;;;10.37;74.35;99552.58;1716288;81;20900;-63
2021/08/05 00:22:27;;;;;;;9.03;4.30;;;;;;;10.36;74.43;99552.64;1731888;82;21029;-63
2021/08/05 00:24:53;;;;;;;10.28;4.28;;;;;;;10.35;74.43;99551.80;1735618;82;21065;-63
2021/08/05 00:27:20;;;;;;;10.18;4.45;;;;;;;10.34;74.50;99552.73;1732480;82;21050;-63
2021/08/05 00:29:47;;;;;;;8.38;4.70;;;;;;;10.33;74.50;99549.72;1730381;82;20920;-63
2021/08/05 00:32:13;;;;;;;8.20;5.08;;;;;;;10.32;74.49;99551.95;1736217;82;21478;-63
2021/08/05 00:34:41;;;;;;;10.17;5.50;;;;;;;10.30;74.53;99555.09;1731946;82;21316;-63
2021/08/05 00:37:07;;;;;;;;;;;;;;;10.27;74.58;99553.93;1731209;82;20961;-63
2021/08/05 00:39:34;;;;;;;11.97;5.70;;;;;;;10.27;74.83;99555.23;1728668;82;20122;-63
2021/08/05 00:42:01;;;;;;;11.57;5.03;;;;;;;10.24;74.72;99560.58;1732416;82;20918;-63
2021/08/05 00:44:27;;;;;;;11.53;5.62;;;;;;;10.24;74.86;99556.66;1728741;82;20954;-63
2021/08/05 00:46:54;;;;;;;14.43;6.30;;;;;;;10.26;74.99;99554.83;1725526;82;21882;-63
2021/08/05 00:49:20;;;;;;;7.42;4.87;;;;;;;10.30;74.92;99559.00;1740977;81;21500;-64
2021/08/05 00:51:47;;;;;;;5.90;4.53;;;;;;;10.27;74.87;99553.93;1747270;81;20920;-63
2021/08/05 00:54:14;;;;;;;10.32;5.15;;;;;;;10.20;74.88;99555.14;1739512;81;20942;-63
2021/08/05 00:56:40;;;;;;;9.57;6.13;;;;;;;10.20;75.08;99555.14;1742244;81;21006;-63
2021/08/05 00:59:07;;;;;;;11.45;6.55;;;;;;;10.24;75.20;99551.45;1741088;81;21037;-63
2021/08/05 01:01:46;;;;;;;10.40;5.80;;;;;;;10.28;75.25;99547.81;1742049;81;20952;-63
2021/08/05 01:04:14;;;;;;;12.60;6.20;;;;;;;10.28;75.18;99555.17;1711588;81;20898;-63
2021/08/05 01:07:24;;;;;;;13.28;6.28;;;;;;;10.29;75.35;99549.49;1743474;81;20926;-63
2021/08/05 01:10:04;;;;;;;8.53;4.40;;;;;;;10.32;75.35;99544.12;1743327;81;20990;-63
2021/08/05 01:12:50;;;;;;;11.08;5.40;;;;;;;10.25;75.23;99540.08;1745169;81;21879;-63
2021/08/05 01:15:29;;;;;;;10.33;5.10;;;;;;;10.21;75.32;99535.94;1747184;81;21540;-63
2021/08/05 01:18:02;;;;;;;9.80;5.85;;;;;;;10.22;75.43;99537.62;1743805;81;20946;-63
2021/08/05 01:20:31;;;;;;;10.95;6.47;;;;;;;10.25;75.62;99538.77;1741463;81;20964;-63
2021/08/05 01:23:10;;;;;;;7.92;4.95;;;;;;;10.22;75.50;99527.18;1748573;81;20924;-63
2021/08/05 01:26:06;;;;;;;13.35;7.12;;;;;;;10.20;75.54;99522.52;1743810;81;21122;-63
2021/08/05 01:28:35;;;;;;;9.80;5.92;;;;;;;10.21;75.61;99522.89;1744381;81;20880;-63
2021/08/05 01:31:04;;;;;;;10.28;5.35;;;;;;;10.21;75.68;99526.81;1746543;81;20893;-63
2021/08/05 01:33:32;;;;;;;12.95;7.15;;;;;;;10.20;75.68;99529.05;1743435;81;20902;-63
2021/08/05 01:36:00;;;;;;;13.40;7.50;;;;;;;10.20;75.71;99531.66;1743566;81;20958;-63
2021/08/05 01:38:27;;;;;;;;;;;;;;;10.18;75.66;99526.96;1751958;81;21095;-63
2021/08/05 01:40:54;;;;;;;13.85;7.00;;;;;;;10.08;75.68;99530.02;1746714;81;20124;-63
2021/08/05 01:43:22;;;;;;;12.40;7.30;;;;;;;10.04;75.81;99531.07;1742635;81;20996;-63
2021/08/05 01:45:49;;;;;;;12.50;7.30;;;;;;;10.05;75.88;99531.48;1743847;81;20912;-63
2021/08/05 01:48:18;;;;;;;12.33;6.67;;;;;;;10.07;75.95;99525.70;1733710;81;20919;-63
2021/08/05 01:50:45;;;;;;;8.85;5.08;;;;;;;10.05;75.96;99523.66;1721285;82;21499;-63
2021/08/05 01:53:15;;;;;;;10.93;6.87;;;;;;;10.00;75.96;99530.84;1729773;82;20892;-63
2021/08/05 01:55:43;;;;;;;10.30;6.80;;;;;;;9.97;76.00;99531.00;1728118;81;20903;-63
2021/08/05 01:58:09;;;;;;;;;;;;;;;9.94;76.08;99535.06;1729247;82;21005;-63
2021/08/05 02:00:36;;;;;;;11.60;6.63;;;;;;;9.78;76.07;99522.36;1727193;82;20101;-63
2021/08/05 02:03:05;;;;;;;12.60;7.40;;;;;;;9.78;76.07;99522.36;1729875;82;21803;-63
2021/08/05 02:06:13;;;;;;;10.90;6.17;;;;;;;9.78;76.02;99536.70;1726199;82;20948;-63
2021/08/05 02:08:54;;;;;;;8.13;5.47;;;;;;;9.76;76.21;99541.13;1728561;82;21473;-63
2021/08/05 02:11:26;;;;;;;9.13;5.97;;;;;;;9.75;76.33;99545.50;1726677;82;21059;-63
2021/08/05 02:13:54;;;;;;;15.13;7.37;;;;;;;9.76;76.42;99542.44;1724318;82;20978;-63
2021/08/05 02:16:25;;;;;;;11.28;6.00;;;;;;;9.81;76.46;99537.85;1728044;82;21078;-63
2021/08/05 02:18:53;;;;;;;10.00;5.55;;;;;;;9.82;76.35;99542.14;1730022;82;21466;-63
2021/08/05 02:21:24;;;;;;;11.00;6.53;;;;;;;9.83;76.37;99543.82;1729176;82;20903;-63
2021/08/05 02:23:55;;;;;;;8.93;6.50;;;;;;;9.84;76.43;99545.53;1729003;82;20923;-63
2021/08/05 02:26:21;;;;;;;11.22;4.95;;;;;;;9.84;76.49;99545.06;1726200;82;20959;-63
2021/08/05 02:28:49;;;;;;;12.45;5.95;;;;;;;9.82;76.54;99543.45;1725420;82;21131;-63
2021/08/05 02:31:17;;;;;;;7.37;5.40;;;;;;;9.87;76.72;99544.08;1725043;82;20912;-63
2021/08/05 02:33:45;;;;;;;13.75;6.78;;;;;;;9.92;76.76;99543.41;1704694;82;20939;-63
2021/08/05 02:36:13;;;;;;;9.88;6.35;;;;;;;9.98;76.73;99537.89;1730086;82;20891;-63
2021/08/05 02:38:40;;;;;;;11.80;6.85;;;;;;;10.02;76.87;99536.81;1724992;82;21514;-63
2021/08/05 02:41:07;;;;;;;11.10;6.78;;;;;;;10.03;76.81;99539.83;1730277;82;21499;-63
2021/08/05 02:43:35;;;;;;;9.78;5.62;;;;;;;10.05;76.85;99534.09;1704154;82;20983;-63
2021/08/05 02:46:04;;;;;;;7.20;4.85;;;;;;;10.04;76.82;99540.20;1728199;81;20977;-63
2021/08/05 02:48:33;;;;;;;8.95;4.90;;;;;;;10.00;76.80;99530.84;1737037;81;20858;-63
2021/08/05 02:51:01;;;;;;;14.03;6.03;;;;;;;10.00;76.90;99529.55;1732358;81;20975;-63
2021/08/05 02:53:28;;;;;;;12.95;5.12;;;;;;;10.00;76.92;99532.62;1731851;81;21268;-63
2021/08/05 02:55:56;;;;;;;10.30;6.42;;;;;;;10.01;77.00;99532.53;1733146;81;20898;-63
2021/08/05 02:58:23;;;;;;;;;;;;;;;10.04;77.10;99529.77;1735826;81;20903;-63
2021/08/05 03:00:50;;;;;;;11.40;6.53;;;;;;;10.04;77.06;99528.47;1735446;81;20132;-63
2021/08/05 03:03:22;;;;;;;15.80;7.00;;;;;;;10.01;76.93;99523.86;1732664;81;20913;-63
2021/08/05 03:05:51;;;;;;;10.32;6.28;;;;;;;9.95;76.83;99524.16;1731307;81;21430;-63
2021/08/05 03:08:18;;;;;;;12.95;7.08;;;;;;;9.89;76.91;99522.69;1737679;81;20951;-63
2021/08/05 03:10:45;;;;;;;10.43;6.20;;;;;;;9.87;77.15;99524.52;1738920;81;20932;-63
2021/08/05 03:13:11;;;;;;;15.60;6.83;;;;;;;9.91;77.33;99520.83;1736138;81;20966;-63
2021/08/05 03:15:38;;;;;;;11.83;7.03;;;;;;;9.96;77.30;99522.77;1730565;81;21447;-63
2021/08/05 03:18:04;;;;;;;8.18;5.15;;;;;;;9.99;77.31;99516.09;1729287;81;21042;-63
2021/08/05 03:20:31;;;;;;;14.38;6.53;;;;;;;10.00;77.34;99520.42;1735411;81;20966;-63
2021/08/05 03:22:59;;;;;;;12.25;6.45;;;;;;;10.05;77.37;99521.05;1736010;81;20915;-63
2021/08/05 03:25:27;;;;;;;14.33;7.85;;;;;;;10.11;77.45;99519.03;1736445;81;21491;-63
2021/08/05 03:27:54;;;;;;;10.63;6.17;;;;;;;10.19;77.58;99515.59;1732514;81;20940;-63
2021/08/05 03:30:21;;;;;;;;;;;;;;;10.27;77.59;99521.31;1734713;81;21673;-63
2021/08/05 03:32:47;;;;;;;15.70;8.43;;;;;;;10.39;77.81;99514.20;1740165;81;20130;-63
2021/08/05 03:35:14;;;;;;;14.07;7.78;;;;;;;10.61;77.78;99518.33;1733916;81;20907;-63
2021/08/05 03:37:40;;;;;;;13.22;6.58;;;;;;;10.95;77.78;99514.39;1738355;81;20856;-63
2021/08/05 03:40:08;;;;;;;12.75;7.10;;;;;;;11.12;77.44;99517.42;1740112;81;21501;-63
2021/08/05 03:42:34;;;;;;;8.60;5.05;;;;;;;11.15;77.28;99519.87;1733201;81;21440;-63
2021/08/05 03:45:01;;;;;;;11.93;5.58;;;;;;;11.19;77.16;99512.70;1732952;81;20936;-63
2021/08/05 03:47:28;;;;;;;10.20;5.53;;;;;;;11.32;77.09;99521.58;1736362;81;20865;-63
2021/08/05 03:49:55;;;;;;;9.40;4.87;;;;;;;11.18;76.79;99497.95;1740679;81;20927;-63
2021/08/05 03:52:22;;;;;;;13.08;5.35;;;;;;;11.29;77.10;99512.61;1749527;81;21518;-63
2021/08/05 03:54:48;;;;;;;9.50;4.55;;;;;;;11.32;77.06;99511.13;1745841;81;22019;-63
2021/08/05 03:57:15;;;;;;;6.15;4.47;;;;;;;11.30;77.05;99512.97;1741224;81;21534;-63
2021/08/05 03:59:41;;;;;;;7.83;4.12;;;;;;;11.30;77.17;99518.20;1741218;81;21442;-63
2021/08/05 04:02:08;;;;;;;9.33;5.00;;;;;;;11.36;77.20;99520.48;1745163;81;20922;-63
2021/08/05 04:04:34;;;;;;;8.73;4.58;;;;;;;11.48;77.22;99511.59;1744412;81;21021;-63
2021/08/05 04:07:01;;;;;;;32.90;5.95;;;;;;;11.60;77.34;99509.64;1732242;81;21041;-64
2021/08/05 04:09:27;;;;;;;16.97;5.33;;;;;;;11.74;77.15;99509.72;1763303;80;20863;-63
2021/08/05 04:11:54;;;;;;;17.70;5.70;;;;;;;11.86;77.10;99516.91;1766447;80;20903;-63
2021/08/05 04:14:21;;;;;;;24.80;6.08;;;;;;;12.28;77.33;99518.02;1762210;79;20900;-63
2021/08/05 04:16:47;;;;;;;14.83;7.12;;;;;;;12.49;76.95;99517.70;1766712;80;20942;-64
2021/08/05 04:19:14;;;;;;;27.98;6.08;;;;;;;12.69;76.87;99508.70;1765467;79;21838;-64
2021/08/05 04:21:40;;;;;;;29.97;6.73;;;;;;;13.36;77.52;99511.63;1766003;80;20883;-64
2021/08/05 04:24:07;;;;;;;20.57;6.90;;;;;;;14.60;77.17;99505.44;1770793;80;20911;-65
2021/08/05 04:26:33;;;;;;;18.87;6.50;;;;;;;15.03;75.53;99497.23;1769034;80;20919;-65
2021/08/05 04:29:00;;;;;;;16.37;6.70;;;;;;;14.96;75.33;99496.83;1763815;80;21644;-64
2021/08/05 04:31:27;;;;;;;35.47;7.17;;;;;;;15.16;76.32;99494.13;1737185;80;21153;-64
2021/08/05 04:33:53;;;;;;;33.95;7.33;;;;;;;16.46;76.84;99493.91;1762548;80;20901;-64
2021/08/05 04:36:20;;;;;;;39.93;9.03;;;;;;;17.13;74.82;99483.97;1765213;80;21486;-64
2021/08/05 04:38:47;;;;;;;40.45;7.42;;;;;;;17.01;74.36;99488.89;1763122;80;21725;-64
2021/08/05 04:41:13;;;;;;;54.80;10.32;;;;;;;17.47;75.71;99487.91;1763136;80;20879;-65
2021/08/05 04:43:40;;;;;;;65.95;11.55;;;;;;;18.68;75.28;99485.07;1765406;80;21071;-65
2021/08/05 04:46:07;;;;;;;148.50;14.28;;;;;;;19.45;74.37;99466.09;1771068;80;20867;-65
2021/08/05 04:48:33;;;;;;;115.03;14.53;;;;;;;20.35;74.14;99465.91;1762252;80;20883;-65
2021/08/05 04:51:00;;;;;;;121.72;12.18;;;;;;;21.37;73.94;99465.72;1759738;80;20965;-65
2021/08/05 04:53:27;;;;;;;165.05;15.88;;;;;;;22.19;72.82;99467.94;1764969;80;20939;-65
2021/08/05 04:55:54;;;;;;;110.15;12.47;;;;;;;22.95;72.53;99460.17;1762973;80;21062;-65
2021/08/05 04:58:20;;;;;;;60.65;8.30;;;;;;;23.52;71.45;99461.41;1776607;79;20908;-63
2021/08/05 05:00:47;;;;;;;43.90;7.85;;;;;;;24.03;70.82;99458.20;1772672;79;21331;-63
2021/08/05 05:03:13;;;;;;;;;;;;;;;24.02;69.66;99453.36;1777195;79;20903;-63
2021/08/05 05:05:40;;;;;;;33.38;6.42;;;;;;;23.58;69.74;99452.75;1773312;79;20117;-63
2021/08/05 05:08:22;;;;;;;39.48;7.10;;;;;;;23.57;69.29;99452.43;1759645;81;21054;-63
2021/08/05 05:10:51;;;;;;;47.08;6.62;;;;;;;23.07;69.22;99451.91;1759508;79;21480;-63
2021/08/05 05:13:18;;;;;;;39.60;8.00;;;;;;;22.98;69.26;99449.20;1738571;81;20924;-64
2021/08/05 05:15:45;;;;;;;;;;;;;;;22.63;68.69;99451.95;1750168;81;20936;-64
2021/08/05 05:18:14;;;;;;;38.10;6.53;;;;;;;22.03;68.19;99448.15;1776659;79;20119;-65
2021/08/05 05:20:41;;;;;;;42.62;7.42;;;;;;;21.41;68.51;99456.48;1748861;79;21060;-64
2021/08/05 05:23:09;;;;;;;37.88;6.90;;;;;;;20.84;68.43;99450.41;1757199;80;21643;-65
2021/08/05 05:25:37;;;;;;;37.15;6.55;;;;;;;21.24;69.78;99454.93;1775954;79;20856;-65
2021/08/05 05:28:04;;;;;;;31.57;5.78;;;;;;;22.30;70.45;99446.42;1780702;79;20892;-64
2021/08/05 05:30:31;;;;;;;29.72;5.97;;;;;;;23.54;69.34;99440.77;1781354;79;20947;-64
2021/08/05 05:32:58;;;;;;;15.95;3.15;;;;;;;24.42;68.62;99437.52;1757104;79;21031;-64
2021/08/05 05:35:24;;;;;;;9.68;2.08;;;;;;;25.08;66.96;99441.73;1758968;80;20998;-65
2021/08/05 05:37:54;;;;;;;8.35;2.70;;;;;;;25.93;67.04;99435.64;1771582;79;20910;-65
2021/08/05 05:40:22;;;;;;;2.62;1.15;;;;;;;26.59;66.80;99431.11;1757815;81;20866;-65
2021/08/05 05:42:49;;;;;;;4.97;1.80;;;;;;;27.31;66.73;99424.59;1760237;80;21497;-64
2021/08/05 05:45:18;;;;;;;4.30;1.60;;;;;;;27.41;63.14;99419.75;1755030;79;21932;-64
2021/08/05 05:47:44;;;;;;;3.00;1.12;;;;;;;27.18;63.19;99425.25;1756709;81;20939;-64
2021/08/05 05:50:13;;;;;;;3.45;1.22;;;;;;;27.03;63.84;99420.88;1712327;81;20917;-64
2021/08/05 05:52:41;;;;;;;1.95;1.02;;;;;;;27.42;62.22;99419.27;1742291;81;21010;-65
2021/08/05 05:55:09;;;;;;;1.55;1.00;;;;;;;26.83;59.54;99418.80;1741245;81;20938;-63
2021/08/05 05:57:40;;;;;;;2.33;1.02;;;;;;;26.15;59.71;99431.80;1739697;81;21154;-65
2021/08/05 06:00:08;;;;;;;2.00;1.05;;;;;;;26.41;62.22;99433.59;1743349;81;20863;-63
2021/08/05 06:02:34;;;;;;;14.53;1.85;;;;;;;26.98;62.11;99422.28;1742717;81;21469;-63
2021/08/05 06:05:01;;;;;;;3.37;1.10;;;;;;;27.21;60.90;99425.39;1743602;81;21453;-64
2021/08/05 06:07:28;;;;;;;2.45;1.10;;;;;;;27.60;61.19;99425.53;1711261;81;20903;-65
2021/08/05 06:09:55;;;;;;;1.95;0.72;;;;;;;27.75;59.65;99428.98;1741201;81;21058;-64
2021/08/05 06:12:22;;;;;;;2.05;0.90;;;;;;;27.80;59.19;99423.91;1738619;81;20899;-65
2021/08/05 06:14:48;;;;;;;3.15;1.20;;;;;;;28.21;59.57;99425.95;1742147;81;21027;-64
2021/08/05 06:17:15;;;;;;;1.92;1.00;;;;;;;28.38;58.20;99425.67;1740037;81;21501;-64
2021/08/05 06:19:42;;;;;;;1.42;0.98;;;;;;;28.65;58.20;99431.58;1744431;81;20946;-64
2021/08/05 06:22:10;;;;;;;3.52;1.10;;;;;;;28.08;55.62;99428.51;1742197;81;21754;-64
2021/08/05 06:24:37;;;;;;;1.42;0.70;;;;;;;27.22;54.65;99431.06;1742478;81;20926;-63
2021/08/05 06:27:04;;;;;;;2.67;0.70;;;;;;;26.12;54.31;99437.83;1742916;81;20867;-64
2021/08/05 06:29:32;;;;;;;22.37;1.95;;;;;;;25.18;54.86;99445.08;1745249;81;21538;-64
2021/08/05 06:31:58;;;;;;;2.00;0.80;;;;;;;24.55;55.03;99444.04;1747424;81;20980;-64
2021/08/05 06:34:25;;;;;;;;;;;;;;;24.22;54.52;99439.20;1750431;81;21990;-64
2021/08/05 06:36:51;;;;;;;;;;;;;;;24.16;54.62;99443.88;1748143;81;20484;-64
2021/08/05 06:39:18;;;;;;;11.75;1.20;;;;;;;23.89;54.27;99441.88;1739774;81;20121;-63
2021/08/05 06:41:45;;;;;;;0.85;0.78;;;;;;;23.92;54.77;99448.70;1743975;81;20946;-64
2021/08/05 06:44:11;;;;;;;0.70;0.70;;;;;;;23.67;54.16;99443.80;1744382;81;20958;-65
2021/08/05 06:46:38;;;;;;;0.88;0.60;;;;;;;23.95;54.34;99445.70;1739875;81;21039;-64
2021/08/05 06:49:05;;;;;;;1.05;0.70;;;;;;;24.31;54.36;99448.88;1747626;81;20883;-66
2021/08/05 06:51:31;;;;;;;2.20;0.98;;;;;;;24.58;53.60;99441.53;1740273;81;21098;-63
2021/08/05 06:53:58;;;;;;;1.60;1.00;;;;;;;24.46;52.91;99438.89;1745020;81;21397;-66
2021/08/05 06:56:25;;;;;;;0.90;0.80;;;;;;;24.31;52.85;99444.89;1740244;81;21593;-64
2021/08/05 06:58:52;;;;;;;1.15;0.90;;;;;;;24.14;51.99;99441.86;1740975;81;21430;-64
2021/08/05 07:01:18;;;;;;;;;;;;;;;23.93;51.78;99440.20;1746688;81;21029;-67
2021/08/05 07:03:45;;;;;;;1.92;1.00;;;;;;;23.78;52.11;99439.52;1711560;81;20121;-64
2021/08/05 07:06:12;;;;;;;2.55;1.20;;;;;;;23.74;51.80;99447.50;1737490;81;20938;-64
2021/08/05 07:08:38;;;;;;;1.62;1.10;;;;;;;23.58;51.57;99436.77;1738093;81;20942;-63
2021/08/05 07:11:05;;;;;;;1.37;0.95;;;;;;;23.53;51.93;99436.44;1743213;81;26839;-64
2021/08/05 07:13:31;;;;;;;1.07;0.90;;;;;;;23.72;51.36;99436.16;1745732;81;20895;-64
2021/08/05 07:15:58;;;;;;;3.67;1.02;;;;;;;23.64;51.34;99432.14;1740419;81;20955;-64
2021/08/05 07:18:25;;;;;;;1.07;0.90;;;;;;;23.83;51.28;99431.84;1744160;81;21476;-64
2021/08/05 07:20:51;;;;;;;;;;;;;;;23.93;51.38;99436.20;1745817;81;20901;-63
2021/08/05 07:23:18;;;;;;;3.27;0.90;;;;;;;24.21;51.22;99433.54;1737583;81;22477;-64
2021/08/05 07:25:45;;;;;;;;;;;;;;;24.20;50.97;99426.55;1739938;81;20914;-64
2021/08/05 07:28:13;;;;;;;1.52;1.02;;;;;;;23.97;50.26;99434.86;1739682;81;20142;-63
2021/08/05 07:30:40;;;;;;;2.42;0.93;;;;;;;23.57;50.24;99429.78;1742223;81;21525;-63
2021/08/05 07:33:07;;;;;;;2.75;0.93;;;;;;;23.04;49.93;99430.93;1740503;81;20958;-63
2021/08/05 07:35:33;;;;;;;2.92;1.37;;;;;;;22.69;50.14;99440.70;1742562;81;21123;-62
2021/08/05 07:38:00;;;;;;;1.30;1.00;;;;;;;22.17;49.64;99440.62;1742750;81;20922;-63
2021/08/05 07:40:27;;;;;;;2.02;1.07;;;;;;;21.45;49.96;99440.58;1743882;81;21783;-63
2021/08/05 07:42:54;;;;;;;1.75;0.98;;;;;;;21.13;50.55;99441.02;1710901;81;20891;-63
2021/08/05 07:45:21;;;;;;;1.45;1.00;;;;;;;21.16;51.09;99441.55;1743328;81;21465;-63
2021/08/05 07:47:47;;;;;;;2.72;1.17;;;;;;;21.31;50.58;99433.92;1740849;81;21049;-63
2021/08/05 07:50:14;;;;;;;1.47;1.05;;;;;;;21.33;50.75;99433.78;1741713;81;20938;-63
2021/08/05 07:52:42;;;;;;;1.45;1.32;;;;;;;21.29;48.71;99440.39;1743702;81;20959;-64
2021/08/05 07:55:10;;;;;;;1.70;0.98;;;;;;;21.10;50.62;99443.47;1745073;81;20947;-64
2021/08/05 07:57:37;;;;;;;1.77;0.90;;;;;;;21.15;50.28;99437.23;1717310;81;20957;-63
2021/08/05 08:00:06;;;;;;;3.10;1.27;;;;;;;20.89;50.10;99438.88;1743725;81;21007;-63
2021/08/05 08:02:33;;;;;;;2.65;1.50;;;;;;;20.32;50.43;99442.33;1749984;81;20863;-62
2021/08/05 08:04:59;;;;;;;1.62;0.90;;;;;;;20.06;50.70;99442.08;1747263;81;20923;-63
2021/08/05 08:07:27;;;;;;;1.55;1.20;;;;;;;19.87;51.09;99445.56;1751110;81;20943;-63
2021/08/05 08:09:54;;;;;;;3.35;1.32;;;;;;;19.69;51.39;99435.31;1721160;81;21471;-64
2021/08/05 08:12:21;;;;;;;2.42;1.40;;;;;;;19.54;51.62;99440.61;1745553;81;21056;-63
2021/08/05 08:14:48;;;;;;;;;;;;;;;19.80;52.21;99436.51;1752456;81;20908;-63
2021/08/05 08:17:16;;;;;;;1.95;1.22;;;;;;;20.19;51.98;99428.52;1747856;81;20089;-63
2021/08/05 08:19:45;;;;;;;3.40;1.05;;;;;;;20.35;51.95;99422.16;1743679;81;20943;-63
2021/08/05 08:22:13;;;;;;;1.62;1.20;;;;;;;20.80;52.35;99428.64;1748090;81;21516;-64
2021/08/05 08:24:40;;;;;;;2.35;1.20;;;;;;;21.41;52.09;99428.60;1745631;81;21298;-63
2021/08/05 08:27:07;;;;;;;2.02;1.10;;;;;;;21.77;52.04;99415.36;1704713;81;20942;-63
2021/08/05 08:29:36;;;;;;;1.60;1.30;;;;;;;22.02;51.68;99414.59;1748639;81;20955;-63
2021/08/05 08:32:04;;;;;;;1.50;1.10;;;;;;;22.11;51.10;99418.14;1742786;81;20899;-64
2021/08/05 08:34:30;;;;;;;1.65;1.00;;;;;;;22.21;51.23;99416.74;1741791;81;20946;-63
2021/08/05 08:36:57;;;;;;;0.88;0.88;;;;;;;22.39;51.32;99424.20;1745493;81;21055;-63
2021/08/05 08:39:24;;;;;;;2.60;1.10;;;;;;;22.54;51.35;99409.33;1746040;81;21525;-64
2021/08/05 08:41:51;;;;;;;1.37;0.78;;;;;;;22.68;51.03;99402.59;1742097;81;20856;-64
2021/08/05 08:44:17;;;;;;;1.80;1.15;;;;;;;22.89;51.11;99391.56;1746252;81;26791;-63
2021/08/05 08:46:44;;;;;;;2.00;0.82;;;;;;;23.11;50.51;99401.34;1746103;81;20950;-64
2021/08/05 08:49:11;;;;;;;3.47;1.20;;;;;;;23.06;50.17;99407.64;1742481;81;25061;-63
2021/08/05 08:51:39;;;;;;;1.22;0.90;;;;;;;22.81;49.51;99407.50;1730761;81;20980;-64
2021/08/05 08:54:08;;;;;;;10.85;1.50;;;;;;;22.75;49.56;99408.14;1725518;82;20944;-64
2021/08/05 08:56:37;;;;;;;1.55;0.98;;;;;;;22.78;49.74;99399.83;1728259;82;20986;-64
2021/08/05 08:59:05;;;;;;;1.42;1.07;;;;;;;22.96;49.67;99397.94;1722807;82;20981;-64
2021/08/05 09:01:32;;;;;;;1.72;1.12;;;;;;;22.96;49.16;99403.26;1724256;82;21026;-64
2021/08/05 09:03:59;;;;;;;;;;;;;;;22.91;48.93;99394.91;1727166;82;21041;-64
2021/08/05 09:06:26;;;;;;;2.40;1.00;;;;;;;23.12;49.16;99399.02;1718742;81;20130;-64
2021/08/05 09:08:53;;;;;;;1.10;0.90;;;;;;;23.09;48.66;99395.34;1731458;82;20946;-64
2021/08/05 09:11:20;;;;;;;1.55;1.35;;;;;;;23.01;48.75;99392.97;1732287;82;20946;-64
2021/08/05 09:13:47;;;;;;;2.45;1.07;;;;;;;23.13;48.74;99392.67;1731776;82;21019;-64
2021/08/05 09:16:32;;;;;;;2.30;1.17;;;;;;;23.18;48.65;99390.38;1729772;81;20913;-64
2021/08/05 09:19:19;;;;;;;1.25;1.00;;;;;;;23.18;48.25;99403.69;1709594;82;20966;-65
2021/08/05 09:22:01;;;;;;;2.72;0.98;;;;;;;22.97;48.10;99396.96;1701531;82;21444;-64
2021/08/05 09:24:31;;;;;;;2.25;1.10;;;;;;;22.90;48.08;99387.90;1728370;81;21638;-64
2021/08/05 09:27:02;;;;;;;1.87;1.10;;;;;;;22.80;47.92;99395.19;1716484;83;21872;-63
2021/08/05 09:29:27;;;;;;;2.30;0.90;;;;;;;22.94;48.08;99381.78;1724511;82;21179;-64
2021/08/05 09:32:02;;;;;;;2.55;1.02;;;;;;;23.11;48.04;99390.70;1722951;82;21898;-64
2021/08/05 09:34:39;;;;;;;1.15;0.70;;;;;;;23.14;47.99;99387.71;1723886;81;20981;-63
2021/08/05 09:37:10;;;;;;;3.47;1.00;;;;;;;23.22;47.82;99383.74;1750461;80;20948;-64
2021/08/05 09:39:45;;;;;;;2.47;1.00;;;;;;;23.22;47.68;99381.08;1733922;81;21086;-63
2021/08/05 09:42:13;;;;;;;1.42;1.00;;;;;;;23.17;47.45;99386.88;1698462;81;21495;-64
2021/08/05 09:44:47;;;;;;;2.30;1.10;;;;;;;23.18;47.91;99383.72;1722744;81;20931;-64
2021/08/05 09:47:18;;;;;;;3.15;1.10;;;;;;;23.32;47.70;99379.59;1717317;83;22120;-63
2021/08/05 09:49:54;;;;;;;2.12;1.02;;;;;;;23.37;47.39;99380.77;1748777;81;21002;-64
2021/08/05 09:52:30;;;;;;;;;;;;;;;23.29;47.56;99376.75;1756977;80;21887;-63
2021/08/05 09:55:02;;;;;;;2.65;1.30;;;;;;;23.41;47.52;99375.47;1757367;80;20478;-63
2021/08/05 09:57:38;;;;;;;1.32;0.98;;;;;;;23.49;47.60;99368.47;1757298;80;20958;-63
2021/08/05 10:00:14;;;;;;;3.33;1.15;;;;;;;23.44;47.27;99383.13;1774109;80;20981;-63
2021/08/05 10:02:53;;;;;;;1.95;1.17;;;;;;;23.25;47.24;99378.09;1690325;81;47174;-63
2021/08/05 10:05:23;;;;;;;;;;;;;;;23.19;47.34;99378.23;1749080;80;22040;-63
2021/08/05 10:07:58;;;;;;;3.37;1.10;;;;;;;23.14;46.92;99372.56;1777572;80;20108;-63
2021/08/05 10:10:51;;;;;;;3.27;1.40;;;;;;;23.03;47.17;99372.03;1772196;80;21535;-63
2021/08/05 10:13:36;;;;;;;1.47;0.82;;;;;;;22.91;46.69;99378.94;1760458;80;20946;-64
2021/08/05 10:16:08;;;;;;;1.40;1.30;;;;;;;22.61;46.66;99367.48;1773028;79;20973;-64
2021/08/05 10:18:41;;;;;;;1.45;0.93;;;;;;;22.54;46.80;99363.27;1778070;80;21064;-63
2021/08/05 10:21:13;;;;;;;1.20;1.00;;;;;;;22.60;47.01;99364.47;1780160;80;20967;-63
2021/08/05 10:23:48;;;;;;;2.15;1.12;;;;;;;22.75;47.07;99357.57;1736803;81;20892;-63
2021/08/05 10:26:21;;;;;;;1.92;0.98;;;;;;;22.78;47.08;99357.25;1750066;79;20954;-64
2021/08/05 10:28:50;;;;;;;1.65;0.95;;;;;;;22.91;47.57;99349.66;1742201;79;20922;-63
2021/08/05 10:31:22;;;;;;;1.75;0.90;;;;;;;23.11;47.26;99348.09;1756057;81;21041;-63
2021/08/05 10:33:51;;;;;;;2.25;1.50;;;;;;;23.15;47.02;99350.75;1752195;79;21471;-63
2021/08/05 10:36:24;;;;;;;1.45;0.98;;;;;;;22.92;46.91;99349.98;1750429;79;20914;-64
2021/08/05 10:38:56;;;;;;;2.30;1.12;;;;;;;22.76;46.87;99349.91;1730135;81;20911;-63
2021/08/05 10:41:28;;;;;;;1.70;1.00;;;;;;;22.31;46.93;99344.36;1755739;81;21001;-64
2021/08/05 10:44:05;;;;;;;1.12;1.02;;;;;;;21.74;47.04;99346.58;1749343;81;21445;-64
2021/08/05 10:46:36;;;;;;;1.10;0.80;;;;;;;21.50;47.24;99350.67;1731177;81;20930;-64
2021/08/05 10:49:05;;;;;;;2.65;1.02;;;;;;;21.35;47.49;99352.16;1749623;80;21461;-64
2021/08/05 10:51:40;;;;;;;2.40;0.98;;;;;;;21.34;47.53;99346.48;1778552;79;20929;-64
2021/08/05 10:54:07;;;;;;;1.10;0.75;;;;;;;21.41;47.75;99351.58;1780723;79;20966;-64
2021/08/05 10:56:39;;;;;;;3.55;1.20;;;;;;;21.62;47.91;99344.63;1772343;80;21229;-64
2021/08/05 10:59:14;;;;;;;2.10;0.85;;;;;;;21.75;47.79;99350.89;1729283;80;21503;-65
2021/08/05 11:01:53;;;;;;;5.00;1.15;;;;;;;21.66;47.71;99337.53;1770061;79;21462;-65
2021/08/05 11:04:42;;;;;;;1.70;1.05;;;;;;;21.87;48.00;99336.37;1767794;80;21405;-64
2021/08/05 11:07:32;;;;;;;1.72;0.80;;;;;;;22.00;47.94;99328.83;1771372;78;20969;-63
2021/08/05 11:10:24;;;;;;;0.98;0.72;;;;;;;21.93;47.78;99333.12;1768077;79;21460;-63
2021/08/05 11:13:15;;;;;;;1.50;0.98;;;;;;;21.70;47.92;99331.91;1768609;80;20903;-63
2021/08/05 11:15:45;;;;;;;2.10;1.00;;;;;;;21.30;47.87;99338.49;1767892;80;21433;-63
2021/08/05 11:18:16;;;;;;;2.35;0.80;;;;;;;21.24;48.45;99331.97;1774250;79;21292;-63
2021/08/05 11:20:59;;;;;;;1.37;0.88;;;;;;;21.31;48.57;99329.53;1770517;80;20978;-63
2021/08/05 11:23:38;;;;;;;2.30;1.17;;;;;;;21.38;48.37;99330.64;1766332;79;21041;-63
2021/08/05 11:26:07;;;;;;;1.35;0.80;;;;;;;21.43;48.52;99323.06;1765842;80;20892;-63
2021/08/05 11:28:47;;;;;;;1.82;1.00;;;;;;;21.46;48.72;99326.73;1724465;81;20967;-63
2021/08/05 11:31:30;;;;;;;1.98;1.00;;;;;;;21.62;48.77;99325.56;1748806;80;20886;-63
2021/08/05 11:34:01;;;;;;;1.50;0.90;;;;;;;21.85;48.53;99332.55;1772109;80;20890;-64
2021/08/05 11:36:36;;;;;;;1.62;0.95;;;;;;;21.92;48.36;99331.43;1731549;80;21084;-63
2021/08/05 11:39:19;;;;;;;2.72;1.80;;;;;;;21.78;48.07;99334.64;1766139;80;20910;-63
2021/08/05 11:42:03;;;;;;;1.82;0.90;;;;;;;21.59;48.15;99323.21;1733365;81;20920;-63
2021/08/05 11:44:48;;;;;;;0.60;0.50;;;;;;;21.55;48.37;99319.17;1748761;81;20866;-62